Time;durP1;ratioP1;P1;durP2;ratioP2;P2;SDS_P1;SDS_P2;PMS_P1;PMS_P2;Temp;Humidity;BMP_temperature;BMP_pressure;BME280_temperature;BME280_humidity;BME280_pressure;Samples;Min_cycle;Max_cycle;Signal;HPM_P1;HPM_P2
2023/09/30 00:02:17;;;;;;;24.30;17.30;;;;;;;;;;109529;1251;58893;-80
2023/09/30 00:04:43;;;;;;;25.70;17.00;;;;;;;;;;109414;1254;59007;-80
2023/09/30 00:07:09;;;;;;;30.40;18.20;;;;;;;;;;109389;1251;59871;-80
2023/09/30 00:09:36;;;;;;;26.30;17.60;;;;;;;;;;109388;1251;59641;-80
2023/09/30 00:12:02;;;;;;;25.80;18.10;;;;;;;;;;109374;1251;59644;-80
2023/09/30 00:14:29;;;;;;;27.70;17.70;;;;;;;;;;109340;1251;59198;-80
2023/09/30 00:16:55;;;;;;;29.60;17.20;;;;;;;;;;109440;1251;59043;-80
2023/09/30 00:19:22;;;;;;;28.60;17.10;;;;;;;;;;109372;1251;58966;-80
2023/09/30 00:21:49;;;;;;;24.90;16.40;;;;;;;;;;109421;1251;58960;-80
2023/09/30 00:24:15;;;;;;;24.80;16.90;;;;;;;;;;109369;1251;59325;-80
2023/09/30 00:26:42;;;;;;;22.80;15.90;;;;;;;;;;109403;1251;59348;-80
2023/09/30 00:29:09;;;;;;;28.00;17.20;;;;;;;;;;109403;1251;59357;-80
2023/09/30 00:31:35;;;;;;;25.60;16.70;;;;;;;;;;109362;1251;61956;-80
2023/09/30 00:34:02;;;;;;;26.00;17.00;;;;;;;;;;109376;1251;59064;-80
2023/09/30 00:36:29;;;;;;;28.10;17.70;;;;;;;;;;109378;1250;59199;-80
2023/09/30 00:38:55;;;;;;;22.30;15.80;;;;;;;;;;109379;1251;59774;-81
2023/09/30 00:41:22;;;;;;;27.20;17.20;;;;;;;;;;109360;1251;59154;-80
2023/09/30 00:43:48;;;;;;;27.40;16.10;;;;;;;;;;109214;1251;62315;-80
2023/09/30 00:46:22;;;;;;;25.60;15.30;;;;;;;;;;109392;1251;59802;-80
2023/09/30 00:48:48;;;;;;;24.70;17.50;;;;;;;;;;109367;1251;59776;-80
2023/09/30 00:51:15;;;;;;;25.60;17.50;;;;;;;;;;109406;1251;59074;-79
2023/09/30 00:53:42;;;;;;;27.10;17.70;;;;;;;;;;109369;1251;59725;-80
2023/09/30 00:56:08;;;;;;;27.90;16.40;;;;;;;;;;109382;1251;59356;-80
2023/09/30 00:58:34;;;;;;;31.60;17.60;;;;;;;;;;109355;1251;59320;-80
2023/09/30 01:01:01;;;;;;;25.50;15.00;;;;;;;;;;109341;1251;59185;-79
2023/09/30 01:03:27;;;;;;;25.80;17.40;;;;;;;;;;109311;1250;59878;-80
2023/09/30 01:05:54;;;;;;;23.90;16.00;;;;;;;;;;109345;1251;59065;-81
2023/09/30 01:08:20;;;;;;;21.70;15.30;;;;;;;;;;109362;1251;59568;-80
2023/09/30 01:10:47;;;;;;;22.80;15.70;;;;;;;;;;109384;1251;59028;-80
2023/09/30 01:13:14;;;;;;;21.00;14.70;;;;;;;;;;109257;1251;171039;-80
2023/09/30 01:15:40;;;;;;;23.30;14.90;;;;;;;;;;109328;1250;59643;-80
2023/09/30 01:18:07;;;;;;;22.40;14.60;;;;;;;;;;109263;1251;59768;-80
2023/09/30 01:20:33;;;;;;;21.20;15.30;;;;;;;;;;109351;1251;59119;-79
2023/09/30 01:23:00;;;;;;;19.00;14.00;;;;;;;;;;109390;1251;60680;-80
2023/09/30 01:25:27;;;;;;;22.50;15.90;;;;;;;;;;109364;1250;59177;-80
2023/09/30 01:27:54;;;;;;;24.00;14.30;;;;;;;;;;109425;1251;59599;-80
2023/09/30 01:30:22;;;;;;;23.60;15.90;;;;;;;;;;109416;1251;58818;-79
2023/09/30 01:32:48;;;;;;;20.20;12.60;;;;;;;;;;109405;1251;60392;-80
2023/09/30 01:35:15;;;;;;;21.60;14.10;;;;;;;;;;109319;1251;59746;-80
2023/09/30 01:37:41;;;;;;;22.70;16.00;;;;;;;;;;109339;1251;59351;-79
2023/09/30 01:40:11;;;;;;;22.00;15.20;;;;;;;;;;109348;1251;59033;-80
2023/09/30 01:42:38;;;;;;;20.20;14.50;;;;;;;;;;109353;1254;58916;-79
2023/09/30 01:45:05;;;;;;;22.90;15.20;;;;;;;;;;109343;1251;62711;-79
2023/09/30 01:47:31;;;;;;;20.10;14.80;;;;;;;;;;109337;1250;59735;-80
2023/09/30 01:49:58;;;;;;;19.50;13.30;;;;;;;;;;109353;1251;59515;-80
2023/09/30 01:52:25;;;;;;;20.30;14.80;;;;;;;;;;109333;1250;59060;-80
2023/09/30 01:54:51;;;;;;;23.70;15.30;;;;;;;;;;109365;1251;59831;-80
2023/09/30 01:57:18;;;;;;;23.10;16.00;;;;;;;;;;109319;1251;59758;-79
2023/09/30 01:59:44;;;;;;;19.80;12.90;;;;;;;;;;109359;1251;60126;-80
2023/09/30 02:02:10;;;;;;;18.50;13.20;;;;;;;;;;109372;1251;59210;-80
2023/09/30 02:04:37;;;;;;;20.70;14.20;;;;;;;;;;109313;1251;59495;-80
2023/09/30 02:07:04;;;;;;;21.40;13.50;;;;;;;;;;109259;1252;59667;-80
2023/09/30 02:09:30;;;;;;;23.20;14.30;;;;;;;;;;109372;1251;59650;-80
2023/09/30 02:11:57;;;;;;;20.00;13.80;;;;;;;;;;109341;1251;59625;-80
2023/09/30 02:14:24;;;;;;;20.50;14.10;;;;;;;;;;109385;1251;59622;-80
2023/09/30 02:16:51;;;;;;;21.60;14.40;;;;;;;;;;109366;1250;59151;-80
2023/09/30 02:19:17;;;;;;;21.50;15.50;;;;;;;;;;109387;1250;59376;-80
2023/09/30 02:21:44;;;;;;;18.90;12.10;;;;;;;;;;109425;1251;62726;-79
2023/09/30 02:24:10;;;;;;;23.20;13.90;;;;;;;;;;109354;1251;59487;-80
2023/09/30 02:26:39;;;;;;;21.10;14.00;;;;;;;;;;109343;1251;58969;-80
2023/09/30 02:29:07;;;;;;;22.50;13.20;;;;;;;;;;109383;1251;59230;-80
2023/09/30 02:31:34;;;;;;;14.80;12.30;;;;;;;;;;109288;1251;58941;-80
2023/09/30 02:34:03;;;;;;;23.90;15.00;;;;;;;;;;109357;1251;59082;-80
2023/09/30 02:36:30;;;;;;;20.50;12.70;;;;;;;;;;109355;1250;59292;-80
2023/09/30 02:38:56;;;;;;;22.10;13.20;;;;;;;;;;109322;1250;59616;-79
2023/09/30 02:41:23;;;;;;;19.70;13.40;;;;;;;;;;109334;1251;59771;-80
2023/09/30 02:43:49;;;;;;;21.30;13.60;;;;;;;;;;109367;1251;59062;-80
2023/09/30 02:46:16;;;;;;;20.80;13.40;;;;;;;;;;109349;1251;59034;-81
2023/09/30 02:48:43;;;;;;;18.60;13.10;;;;;;;;;;109374;1251;59768;-80
2023/09/30 02:51:11;;;;;;;23.80;13.60;;;;;;;;;;109338;1250;59647;-80
2023/09/30 02:53:37;;;;;;;21.10;13.30;;;;;;;;;;109177;1251;59069;-80
2023/09/30 02:56:04;;;;;;;17.30;12.10;;;;;;;;;;109339;1250;58896;-80
2023/09/30 02:58:30;;;;;;;20.90;14.50;;;;;;;;;;109347;1251;61967;-80
2023/09/30 03:00:57;;;;;;;22.40;14.10;;;;;;;;;;109354;1251;59074;-80
2023/09/30 03:03:25;;;;;;;22.50;14.00;;;;;;;;;;109380;1251;59630;-79
2023/09/30 03:05:52;;;;;;;18.40;13.20;;;;;;;;;;109310;1251;59611;-79
2023/09/30 03:08:18;;;;;;;19.30;11.90;;;;;;;;;;109382;1251;58937;-81
2023/09/30 03:10:45;;;;;;;24.30;14.60;;;;;;;;;;109382;1250;59255;-80
2023/09/30 03:13:12;;;;;;;17.30;12.40;;;;;;;;;;109365;1250;59618;-80
2023/09/30 03:15:38;;;;;;;20.20;13.50;;;;;;;;;;109332;1251;59625;-79
2023/09/30 03:18:05;;;;;;;19.10;12.60;;;;;;;;;;109370;1251;58954;-80
2023/09/30 03:20:31;;;;;;;26.60;12.60;;;;;;;;;;109379;1251;59566;-80
2023/09/30 03:22:59;;;;;;;21.00;12.80;;;;;;;;;;109396;1250;58978;-80
2023/09/30 03:25:25;;;;;;;24.30;13.80;;;;;;;;;;109355;1251;59205;-80
2023/09/30 03:27:52;;;;;;;18.20;12.40;;;;;;;;;;109205;1251;59612;-80
2023/09/30 03:30:20;;;;;;;22.70;12.30;;;;;;;;;;109226;1250;59656;-79
2023/09/30 03:32:47;;;;;;;19.00;12.90;;;;;;;;;;109345;1251;58955;-80
2023/09/30 03:35:21;;;;;;;18.70;11.90;;;;;;;;;;109399;1251;60625;-80
2023/09/30 03:37:47;;;;;;;19.70;11.60;;;;;;;;;;109378;1251;59071;-80
2023/09/30 03:40:18;;;;;;;15.40;11.20;;;;;;;;;;109328;1251;59717;-80
2023/09/30 03:42:45;;;;;;;17.70;12.80;;;;;;;;;;109353;1250;59072;-79
2023/09/30 03:45:13;;;;;;;18.60;11.80;;;;;;;;;;109401;1251;59038;-80
2023/09/30 03:47:40;;;;;;;19.40;12.90;;;;;;;;;;109386;1250;60472;-80
2023/09/30 03:50:13;;;;;;;19.80;12.70;;;;;;;;;;109322;1251;59768;-80
2023/09/30 03:52:43;;;;;;;19.90;12.50;;;;;;;;;;109325;1251;59780;-80
2023/09/30 03:55:15;;;;;;;16.70;12.50;;;;;;;;;;109365;1251;59698;-80
2023/09/30 03:57:41;;;;;;;20.60;13.50;;;;;;;;;;109358;1251;59565;-79
2023/09/30 04:00:11;;;;;;;17.50;12.10;;;;;;;;;;109369;1251;58951;-79
2023/09/30 04:02:38;;;;;;;18.10;12.40;;;;;;;;;;109373;1250;59478;-79
2023/09/30 04:05:05;;;;;;;17.70;12.10;;;;;;;;;;109342;1250;60795;-80
2023/09/30 04:07:32;;;;;;;20.20;13.20;;;;;;;;;;109368;1251;59177;-80
2023/09/30 04:10:01;;;;;;;17.90;13.00;;;;;;;;;;109383;1251;59746;-80
2023/09/30 04:12:28;;;;;;;19.10;13.30;;;;;;;;;;109346;1250;60361;-79
2023/09/30 04:14:54;;;;;;;17.90;12.00;;;;;;;;;;109378;1251;59048;-79
2023/09/30 04:17:22;;;;;;;18.70;12.80;;;;;;;;;;109390;1250;59148;-79
2023/09/30 04:19:51;;;;;;;20.10;14.30;;;;;;;;;;109353;1251;59615;-79
2023/09/30 04:22:18;;;;;;;19.80;11.50;;;;;;;;;;109383;1251;59495;-79
2023/09/30 04:24:45;;;;;;;21.40;13.60;;;;;;;;;;109347;1251;61555;-80
2023/09/30 04:27:12;;;;;;;16.80;12.20;;;;;;;;;;109235;1251;59734;-80
2023/09/30 04:29:39;;;;;;;18.30;11.80;;;;;;;;;;109331;1251;58953;-80
2023/09/30 04:32:06;;;;;;;19.90;11.90;;;;;;;;;;109355;1251;59592;-80
2023/09/30 04:34:32;;;;;;;16.60;11.50;;;;;;;;;;109391;1251;59637;-80
2023/09/30 04:36:59;;;;;;;17.20;12.20;;;;;;;;;;109380;1251;59035;-80
2023/09/30 04:39:26;;;;;;;17.60;12.10;;;;;;;;;;109384;1251;59049;-80
2023/09/30 04:41:52;;;;;;;19.10;12.40;;;;;;;;;;109350;1251;59599;-80
2023/09/30 04:44:18;;;;;;;20.50;12.60;;;;;;;;;;109368;1251;59012;-80
2023/09/30 04:46:46;;;;;;;15.50;11.80;;;;;;;;;;109356;1251;59170;-80
2023/09/30 04:49:15;;;;;;;22.00;14.70;;;;;;;;;;109365;1250;61847;-79
2023/09/30 04:51:42;;;;;;;22.10;17.10;;;;;;;;;;109248;1251;59428;-80
2023/09/30 04:54:08;;;;;;;19.40;14.90;;;;;;;;;;109351;1251;59697;-80
2023/09/30 04:56:35;;;;;;;21.20;13.10;;;;;;;;;;109326;1251;59102;-80
2023/09/30 04:59:02;;;;;;;19.50;14.30;;;;;;;;;;109307;1251;59656;-80
2023/09/30 05:01:29;;;;;;;23.00;14.40;;;;;;;;;;109371;1251;62859;-80
2023/09/30 05:03:55;;;;;;;15.90;11.40;;;;;;;;;;109340;1251;59132;-80
2023/09/30 05:06:22;;;;;;;20.10;12.20;;;;;;;;;;109357;1251;59485;-81
2023/09/30 05:08:48;;;;;;;16.80;11.70;;;;;;;;;;109201;1251;59732;-80
2023/09/30 05:11:15;;;;;;;15.90;11.70;;;;;;;;;;109392;1250;59188;-80
2023/09/30 05:13:41;;;;;;;16.80;10.80;;;;;;;;;;109415;1251;62994;-80
2023/09/30 05:16:08;;;;;;;14.80;11.70;;;;;;;;;;109420;1251;59580;-80
2023/09/30 05:18:34;;;;;;;18.20;12.50;;;;;;;;;;109379;1251;59729;-79
2023/09/30 05:21:01;;;;;;;18.30;13.20;;;;;;;;;;109335;1251;59657;-80
2023/09/30 05:23:27;;;;;;;17.00;12.00;;;;;;;;;;109312;1251;59559;-80
2023/09/30 05:25:54;;;;;;;17.60;12.10;;;;;;;;;;109316;1251;59306;-80
2023/09/30 05:28:20;;;;;;;18.10;12.50;;;;;;;;;;109313;1251;59860;-79
2023/09/30 05:30:47;;;;;;;18.30;12.00;;;;;;;;;;109231;1253;59456;-80
2023/09/30 05:33:14;;;;;;;19.00;13.10;;;;;;;;;;109349;1251;59448;-80
2023/09/30 05:35:41;;;;;;;18.00;13.00;;;;;;;;;;109355;1252;59559;-80
2023/09/30 05:38:07;;;;;;;19.70;13.30;;;;;;;;;;109181;1253;62626;-81
2023/09/30 05:40:34;;;;;;;21.00;12.40;;;;;;;;;;109356;1251;59599;-80
2023/09/30 05:43:00;;;;;;;14.20;11.50;;;;;;;;;;109334;1251;59157;-80
2023/09/30 05:45:27;;;;;;;17.80;11.70;;;;;;;;;;109267;1251;59162;-80
2023/09/30 05:47:56;;;;;;;16.20;13.00;;;;;;;;;;109370;1251;59629;-80
2023/09/30 05:50:26;;;;;;;25.00;16.90;;;;;;;;;;109485;1252;61960;-80
2023/09/30 05:52:53;;;;;;;21.50;12.80;;;;;;;;;;109332;1250;59688;-80
2023/09/30 05:55:20;;;;;;;17.30;11.80;;;;;;;;;;109333;1251;59739;-81
2023/09/30 05:57:50;;;;;;;19.30;13.40;;;;;;;;;;109329;1251;58954;-80
2023/09/30 06:00:30;;;;;;;16.70;12.10;;;;;;;;;;109347;1251;59112;-80
2023/09/30 06:02:57;;;;;;;15.10;12.50;;;;;;;;;;109384;1250;60584;-81
2023/09/30 06:05:23;;;;;;;20.40;14.30;;;;;;;;;;109405;1251;59415;-80
2023/09/30 06:07:50;;;;;;;19.00;11.00;;;;;;;;;;109389;1251;58971;-80
2023/09/30 06:10:18;;;;;;;18.70;13.20;;;;;;;;;;109392;1250;59539;-80
2023/09/30 06:12:48;;;;;;;16.70;12.10;;;;;;;;;;109403;1251;59353;-80
2023/09/30 06:15:15;;;;;;;20.60;13.30;;;;;;;;;;109383;1251;61932;-80
2023/09/30 06:17:42;;;;;;;18.00;12.90;;;;;;;;;;109401;1250;59629;-80
2023/09/30 06:20:15;;;;;;;20.00;13.00;;;;;;;;;;109422;1250;59624;-80
2023/09/30 06:22:43;;;;;;;18.60;13.10;;;;;;;;;;109353;1251;59075;-80
2023/09/30 06:25:10;;;;;;;21.50;12.90;;;;;;;;;;109525;1251;59810;-80
2023/09/30 06:27:37;;;;;;;16.80;11.30;;;;;;;;;;109406;1250;60364;-80
2023/09/30 06:30:05;;;;;;;15.70;11.90;;;;;;;;;;109404;1251;59794;-80
2023/09/30 06:32:31;;;;;;;15.80;11.40;;;;;;;;;;109431;1251;59379;-80
2023/09/30 06:34:57;;;;;;;16.00;12.30;;;;;;;;;;109384;1251;59033;-80
2023/09/30 06:37:26;;;;;;;16.00;11.50;;;;;;;;;;109377;1252;59071;-80
2023/09/30 06:39:53;;;;;;;23.40;12.30;;;;;;;;;;109452;1250;61586;-79
2023/09/30 06:42:19;;;;;;;16.30;12.40;;;;;;;;;;109464;1250;59648;-80
2023/09/30 06:44:46;;;;;;;23.70;14.90;;;;;;;;;;109563;1249;59618;-81
2023/09/30 06:47:13;;;;;;;16.20;13.30;;;;;;;;;;109396;1251;59501;-80
2023/09/30 06:49:39;;;;;;;22.40;14.30;;;;;;;;;;109403;1251;58934;-80
2023/09/30 06:52:07;;;;;;;27.10;16.10;;;;;;;;;;109392;1250;59493;-80
2023/09/30 06:54:33;;;;;;;21.30;15.10;;;;;;;;;;109355;1253;59370;-80
2023/09/30 06:56:59;;;;;;;22.20;15.20;;;;;;;;;;109379;1250;59239;-80
2023/09/30 06:59:26;;;;;;;23.00;15.40;;;;;;;;;;109379;1250;59955;-80
2023/09/30 07:01:52;;;;;;;21.10;15.10;;;;;;;;;;109365;1251;59786;-80
2023/09/30 07:04:19;;;;;;;22.70;15.80;;;;;;;;;;109366;1251;59002;-80
2023/09/30 07:06:45;;;;;;;24.30;16.90;;;;;;;;;;109354;1251;59299;-80
2023/09/30 07:09:12;;;;;;;27.30;17.90;;;;;;;;;;109377;1249;59103;-80
2023/09/30 07:11:38;;;;;;;31.00;21.70;;;;;;;;;;109409;1251;59032;-80
2023/09/30 07:14:05;;;;;;;26.60;17.40;;;;;;;;;;109472;1249;59036;-80
2023/09/30 07:16:31;;;;;;;20.20;15.90;;;;;;;;;;109418;1251;59749;-80
2023/09/30 07:18:58;;;;;;;22.50;16.50;;;;;;;;;;109388;1251;59084;-80
2023/09/30 07:21:24;;;;;;;24.20;15.70;;;;;;;;;;109364;1251;59647;-80
2023/09/30 07:23:51;;;;;;;23.50;15.50;;;;;;;;;;109358;1251;59596;-80
2023/09/30 07:26:17;;;;;;;23.80;18.60;;;;;;;;;;109427;1251;59522;-80
2023/09/30 07:28:43;;;;;;;22.80;15.40;;;;;;;;;;109344;1251;59801;-80
2023/09/30 07:31:10;;;;;;;24.30;16.40;;;;;;;;;;109404;1251;59615;-80
2023/09/30 07:33:36;;;;;;;21.00;16.70;;;;;;;;;;109377;1250;59782;-80
2023/09/30 07:36:03;;;;;;;18.30;15.30;;;;;;;;;;109371;1250;59123;-81
2023/09/30 07:38:29;;;;;;;31.00;17.00;;;;;;;;;;109390;1251;58962;-80
2023/09/30 07:40:55;;;;;;;21.90;16.70;;;;;;;;;;109396;1251;59642;-80
2023/09/30 07:43:22;;;;;;;28.60;18.30;;;;;;;;;;109355;1250;59400;-80
2023/09/30 07:45:48;;;;;;;26.60;17.40;;;;;;;;;;109313;1251;59103;-80
2023/09/30 07:48:15;;;;;;;23.60;18.20;;;;;;;;;;109339;1252;59593;-80
2023/09/30 07:50:42;;;;;;;25.90;17.20;;;;;;;;;;109396;1250;59514;-80
2023/09/30 07:53:08;;;;;;;18.90;15.50;;;;;;;;;;109408;1249;59628;-80
2023/09/30 07:55:35;;;;;;;22.00;16.20;;;;;;;;;;109510;1249;59192;-80
2023/09/30 07:58:03;;;;;;;22.70;16.80;;;;;;;;;;109444;1250;60377;-80
2023/09/30 08:00:29;;;;;;;25.40;18.00;;;;;;;;;;109381;1251;59335;-80
2023/09/30 08:02:56;;;;;;;26.60;18.30;;;;;;;;;;109452;1249;59680;-80
2023/09/30 08:05:22;;;;;;;24.60;17.60;;;;;;;;;;109378;1252;59660;-81
2023/09/30 08:07:48;;;;;;;23.10;15.60;;;;;;;;;;109407;1251;59288;-81
2023/09/30 08:10:16;;;;;;;27.70;18.50;;;;;;;;;;109384;1250;59692;-80
2023/09/30 08:12:46;;;;;;;30.60;19.40;;;;;;;;;;109272;1253;60110;-80
2023/09/30 08:15:12;;;;;;;31.10;21.10;;;;;;;;;;109398;1250;59218;-81
2023/09/30 08:17:39;;;;;;;28.00;21.90;;;;;;;;;;109431;1253;59450;-80
2023/09/30 08:20:05;;;;;;;33.20;21.30;;;;;;;;;;109562;1250;58977;-80
2023/09/30 08:22:32;;;;;;;29.30;20.30;;;;;;;;;;109432;1250;60744;-80
2023/09/30 08:24:59;;;;;;;38.50;25.60;;;;;;;;;;109401;1249;59496;-80
2023/09/30 08:27:25;;;;;;;42.10;28.70;;;;;;;;;;109389;1251;59028;-80
2023/09/30 08:29:51;;;;;;;43.40;30.40;;;;;;;;;;109361;1250;59039;-81
2023/09/30 08:32:18;;;;;;;43.30;30.20;;;;;;;;;;109448;1250;59616;-80
2023/09/30 08:34:44;;;;;;;42.70;30.00;;;;;;;;;;109437;1250;59394;-80
2023/09/30 08:37:11;;;;;;;72.10;31.40;;;;;;;;;;109254;1251;59750;-80
2023/09/30 08:39:38;;;;;;;45.40;28.00;;;;;;;;;;109412;1251;59058;-80
2023/09/30 08:42:05;;;;;;;33.70;21.80;;;;;;;;;;109259;1252;62907;-81
2023/09/30 08:44:32;;;;;;;38.20;24.90;;;;;;;;;;109379;1251;59016;-80
2023/09/30 08:46:58;;;;;;;39.80;24.10;;;;;;;;;;109363;1250;59724;-80
2023/09/30 08:49:25;;;;;;;38.00;24.90;;;;;;;;;;109316;1252;59069;-81
2023/09/30 08:51:51;;;;;;;33.60;24.60;;;;;;;;;;109414;1250;59291;-80
2023/09/30 08:54:17;;;;;;;38.20;26.00;;;;;;;;;;109266;1251;59012;-81
2023/09/30 08:56:44;;;;;;;37.40;23.80;;;;;;;;;;109353;1251;59174;-81
2023/09/30 08:59:11;;;;;;;25.40;18.90;;;;;;;;;;109370;1251;59201;-80
2023/09/30 09:01:37;;;;;;;29.40;18.00;;;;;;;;;;109331;1251;59185;-81
2023/09/30 09:04:04;;;;;;;23.70;17.20;;;;;;;;;;109484;1250;58986;-81
2023/09/30 09:06:30;;;;;;;26.20;17.50;;;;;;;;;;109379;1251;59017;-81
2023/09/30 09:09:12;;;;;;;25.80;18.30;;;;;;;;;;109457;1250;59255;-81
2023/09/30 09:11:39;;;;;;;26.30;19.00;;;;;;;;;;109402;1249;60195;-81
2023/09/30 09:14:07;;;;;;;40.40;27.50;;;;;;;;;;109349;1250;59237;-81
2023/09/30 09:16:33;;;;;;;34.50;24.20;;;;;;;;;;109388;1251;59039;-81
2023/09/30 09:19:01;;;;;;;24.90;19.20;;;;;;;;;;109358;1253;59062;-81
2023/09/30 09:21:28;;;;;;;29.60;21.50;;;;;;;;;;109337;1251;59737;-81
2023/09/30 09:23:54;;;;;;;29.80;19.90;;;;;;;;;;109266;1251;59074;-81
2023/09/30 09:26:27;;;;;;;26.60;19.00;;;;;;;;;;109362;1251;59091;-81
2023/09/30 09:28:57;;;;;;;27.40;18.20;;;;;;;;;;109282;1251;59040;-81
2023/09/30 09:31:27;;;;;;;32.50;20.70;;;;;;;;;;109372;1251;62469;-81
2023/09/30 09:33:54;;;;;;;30.40;19.30;;;;;;;;;;109388;1251;59452;-80
2023/09/30 09:36:20;;;;;;;28.10;18.30;;;;;;;;;;109384;1251;60245;-80
2023/09/30 09:38:48;;;;;;;31.80;20.50;;;;;;;;;;109464;1251;59110;-81
2023/09/30 09:41:14;;;;;;;37.70;25.20;;;;;;;;;;109406;1251;58944;-81
2023/09/30 09:43:41;;;;;;;43.00;28.80;;;;;;;;;;109361;1251;61944;-81
2023/09/30 09:46:08;;;;;;;30.80;21.20;;;;;;;;;;109381;1250;59327;-81
2023/09/30 09:48:37;;;;;;;28.00;20.70;;;;;;;;;;109379;1249;60644;-81
2023/09/30 09:51:07;;;;;;;26.70;17.20;;;;;;;;;;109421;1250;59047;-81
2023/09/30 09:53:37;;;;;;;25.10;16.80;;;;;;;;;;109321;1250;59713;-81
2023/09/30 09:56:04;;;;;;;20.70;16.20;;;;;;;;;;109490;1249;60735;-81
2023/09/30 09:58:33;;;;;;;23.40;16.60;;;;;;;;;;109433;1253;58957;-81
2023/09/30 10:01:00;;;;;;;24.70;17.20;;;;;;;;;;109506;1250;59678;-81
2023/09/30 10:03:27;;;;;;;23.70;15.30;;;;;;;;;;109445;1249;59692;-81
2023/09/30 10:05:53;;;;;;;22.30;15.60;;;;;;;;;;109400;1251;59092;-81
2023/09/30 10:08:20;;;;;;;24.30;14.10;;;;;;;;;;109388;1251;59362;-81
2023/09/30 10:10:46;;;;;;;21.40;16.30;;;;;;;;;;109286;1253;59458;-81
2023/09/30 10:13:36;;;;;;;25.00;17.00;;;;;;;;;;109400;1250;59103;-81
2023/09/30 10:16:02;;;;;;;27.80;18.60;;;;;;;;;;109263;1251;58952;-81
2023/09/30 10:18:29;;;;;;;24.50;18.90;;;;;;;;;;109375;1254;58975;-81
2023/09/30 10:20:55;;;;;;;25.00;18.30;;;;;;;;;;109413;1251;59369;-81
2023/09/30 10:23:32;;;;;;;29.60;20.80;;;;;;;;;;109287;1252;59680;-81
2023/09/30 10:26:25;;;;;;;31.40;20.60;;;;;;;;;;109359;1250;59708;-81
2023/09/30 10:28:53;;;;;;;26.40;18.80;;;;;;;;;;109416;1251;59038;-81
2023/09/30 10:31:21;;;;;;;26.70;19.70;;;;;;;;;;109368;1251;59190;-81
2023/09/30 10:33:59;;;;;;;29.40;18.80;;;;;;;;;;109370;1252;63079;-81
2023/09/30 10:36:27;;;;;;;26.60;19.00;;;;;;;;;;109409;1253;59688;-83
2023/09/30 10:38:53;;;;;;;28.10;19.70;;;;;;;;;;109336;1252;59047;-81
2023/09/30 10:44:22;;;;;;;31.00;23.60;;;;;;;;;;109269;1251;59070;-81
2023/09/30 10:46:49;;;;;;;29.50;20.70;;;;;;;;;;109413;1251;62571;-81
2023/09/30 10:49:38;;;;;;;23.90;19.20;;;;;;;;;;109338;1251;59400;-81
2023/09/30 10:52:05;;;;;;;29.20;19.50;;;;;;;;;;109391;1251;59645;-81
2023/09/30 10:54:31;;;;;;;29.40;21.40;;;;;;;;;;109232;1251;59078;-81
2023/09/30 10:56:59;;;;;;;31.00;22.60;;;;;;;;;;109387;1251;59039;-81
2023/09/30 10:59:26;;;;;;;35.00;23.80;;;;;;;;;;109369;1251;62007;-81
2023/09/30 11:01:55;;;;;;;30.80;23.60;;;;;;;;;;109494;1251;59638;-81
2023/09/30 11:04:22;;;;;;;32.50;22.40;;;;;;;;;;109496;1250;59938;-80
2023/09/30 11:06:51;;;;;;;27.30;22.70;;;;;;;;;;109409;1250;58988;-81
2023/09/30 11:09:19;;;;;;;34.10;26.80;;;;;;;;;;109374;1251;58906;-80
2023/09/30 11:11:49;;;;;;;35.90;25.20;;;;;;;;;;109435;1250;62115;-81
2023/09/30 11:14:16;;;;;;;43.00;28.10;;;;;;;;;;109374;1252;59334;-80
2023/09/30 11:16:45;;;;;;;30.90;23.80;;;;;;;;;;109401;1250;59636;-81
2023/09/30 11:19:12;;;;;;;32.70;22.00;;;;;;;;;;109403;1251;59636;-80
2023/09/30 11:21:39;;;;;;;33.60;20.40;;;;;;;;;;109549;1254;58952;-81
2023/09/30 11:24:06;;;;;;;26.80;19.60;;;;;;;;;;109379;1250;61619;-81
2023/09/30 11:26:33;;;;;;;28.90;21.10;;;;;;;;;;109359;1253;59644;-81
2023/09/30 11:29:06;;;;;;;28.30;21.20;;;;;;;;;;109349;1251;59934;-81
2023/09/30 11:31:33;;;;;;;25.20;19.60;;;;;;;;;;109410;1251;59093;-80
2023/09/30 11:34:03;;;;;;;30.70;22.00;;;;;;;;;;109406;1254;59854;-80
2023/09/30 11:36:31;;;;;;;33.60;24.00;;;;;;;;;;109390;1251;60387;-81
2023/09/30 11:38:57;;;;;;;40.30;27.70;;;;;;;;;;109407;1250;59329;-81
2023/09/30 11:41:32;;;;;;;23.30;18.20;;;;;;;;;;109401;1250;59429;-80
2023/09/30 11:44:00;;;;;;;30.90;22.00;;;;;;;;;;109374;1251;59244;-81
2023/09/30 11:46:27;;;;;;;32.90;23.90;;;;;;;;;;109377;1251;59364;-81
2023/09/30 11:48:59;;;;;;;32.40;26.00;;;;;;;;;;109419;1250;61251;-80
2023/09/30 11:51:26;;;;;;;29.20;23.30;;;;;;;;;;109390;1251;59121;-80
2023/09/30 11:53:53;;;;;;;44.20;30.90;;;;;;;;;;109417;1253;60773;-81
2023/09/30 11:56:20;;;;;;;40.80;27.80;;;;;;;;;;109409;1250;59031;-81
2023/09/30 11:58:46;;;;;;;34.10;24.40;;;;;;;;;;109431;1251;59072;-81
2023/09/30 12:01:14;;;;;;;35.30;25.70;;;;;;;;;;109392;1252;59417;-81
2023/09/30 12:03:40;;;;;;;32.80;25.20;;;;;;;;;;109434;1251;59052;-81
2023/09/30 12:06:07;;;;;;;27.40;23.70;;;;;;;;;;109417;1251;59019;-81
2023/09/30 12:08:33;;;;;;;23.40;17.80;;;;;;;;;;109379;1253;59091;-81
2023/09/30 12:11:00;;;;;;;25.10;17.90;;;;;;;;;;109429;1251;59089;-81
2023/09/30 12:13:26;;;;;;;23.10;17.50;;;;;;;;;;109423;1251;59303;-81
2023/09/30 12:15:57;;;;;;;28.70;21.00;;;;;;;;;;109446;1253;59539;-81
2023/09/30 12:18:24;;;;;;;27.10;19.50;;;;;;;;;;109367;1253;60707;-81
2023/09/30 12:20:52;;;;;;;38.60;24.90;;;;;;;;;;109447;1251;59139;-81
2023/09/30 12:23:18;;;;;;;39.10;27.00;;;;;;;;;;109395;1251;59411;-81
2023/09/30 12:25:46;;;;;;;40.30;24.60;;;;;;;;;;109316;1251;61567;-81
2023/09/30 12:28:17;;;;;;;35.30;25.10;;;;;;;;;;109435;1251;59129;-81
2023/09/30 12:30:43;;;;;;;30.70;24.80;;;;;;;;;;109429;1251;59224;-81
2023/09/30 12:33:10;;;;;;;31.50;23.90;;;;;;;;;;109414;1251;59583;-80
2023/09/30 12:35:37;;;;;;;27.90;22.40;;;;;;;;;;109432;1251;59252;-81
2023/09/30 12:38:03;;;;;;;26.10;18.40;;;;;;;;;;109402;1251;62001;-80
2023/09/30 12:40:30;;;;;;;20.10;15.50;;;;;;;;;;109288;1251;59095;-81
2023/09/30 12:42:57;;;;;;;21.90;15.60;;;;;;;;;;109433;1251;60616;-81
2023/09/30 12:45:24;;;;;;;29.40;19.10;;;;;;;;;;109418;1251;59745;-81
2023/09/30 12:47:52;;;;;;;25.20;18.80;;;;;;;;;;109416;1252;59034;-81
2023/09/30 12:50:18;;;;;;;27.20;19.50;;;;;;;;;;109409;1251;60510;-81
2023/09/30 12:52:45;;;;;;;25.30;17.70;;;;;;;;;;109440;1253;59104;-82
2023/09/30 12:55:11;;;;;;;23.00;16.50;;;;;;;;;;109430;1250;59034;-81
2023/09/30 12:57:39;;;;;;;23.10;17.50;;;;;;;;;;109398;1251;59509;-81
2023/09/30 13:00:09;;;;;;;20.70;16.20;;;;;;;;;;109426;1251;58911;-80
2023/09/30 13:02:35;;;;;;;18.00;14.40;;;;;;;;;;109416;1252;61947;-81
2023/09/30 13:05:02;;;;;;;16.70;13.80;;;;;;;;;;109390;1253;59766;-80
2023/09/30 13:07:28;;;;;;;18.20;13.60;;;;;;;;;;109381;1252;60402;-81
2023/09/30 13:09:56;;;;;;;28.60;19.40;;;;;;;;;;109404;1251;59804;-81
2023/09/30 13:12:23;;;;;;;24.70;17.40;;;;;;;;;;109257;1252;183913;-80
2023/09/30 13:14:50;;;;;;;23.80;13.40;;;;;;;;;;109392;1251;60457;-81
2023/09/30 13:17:17;;;;;;;19.70;13.10;;;;;;;;;;109428;1254;59562;-81
2023/09/30 13:19:43;;;;;;;14.80;11.30;;;;;;;;;;109404;1252;59486;-81
2023/09/30 13:22:10;;;;;;;15.20;9.30;;;;;;;;;;109409;1251;59611;-81
2023/09/30 13:24:39;;;;;;;20.70;10.30;;;;;;;;;;109432;1251;59040;-81
2023/09/30 13:27:06;;;;;;;12.60;9.40;;;;;;;;;;109432;1251;61857;-81
2023/09/30 13:29:32;;;;;;;13.40;10.40;;;;;;;;;;109414;1253;59073;-80
2023/09/30 13:31:59;;;;;;;13.90;9.70;;;;;;;;;;109400;1251;59770;-81
2023/09/30 13:34:25;;;;;;;9.70;7.90;;;;;;;;;;109404;1251;59392;-81
2023/09/30 13:36:52;;;;;;;10.60;7.70;;;;;;;;;;109411;1251;59158;-81
2023/09/30 13:39:18;;;;;;;12.70;7.60;;;;;;;;;;109435;1251;59966;-80
2023/09/30 13:41:46;;;;;;;13.90;7.30;;;;;;;;;;109305;1251;59940;-81
2023/09/30 13:44:13;;;;;;;12.50;6.90;;;;;;;;;;109374;1254;59740;-80
2023/09/30 13:46:40;;;;;;;8.90;6.10;;;;;;;;;;109382;1251;59434;-81
2023/09/30 13:49:06;;;;;;;9.50;6.60;;;;;;;;;;109401;1251;59313;-80
2023/09/30 13:51:33;;;;;;;10.60;8.10;;;;;;;;;;109420;1251;61924;-81
2023/09/30 13:53:59;;;;;;;14.60;6.50;;;;;;;;;;109401;1251;59029;-80
2023/09/30 13:56:27;;;;;;;12.60;7.10;;;;;;;;;;109348;1251;59138;-82
2023/09/30 13:58:54;;;;;;;12.30;8.80;;;;;;;;;;109395;1251;59099;-81
2023/09/30 14:01:20;;;;;;;10.20;7.30;;;;;;;;;;109375;1251;59137;-81
2023/09/30 14:03:55;;;;;;;9.00;7.20;;;;;;;;;;109450;1251;59082;-81
2023/09/30 14:06:21;;;;;;;12.50;7.00;;;;;;;;;;109328;1253;59034;-80
2023/09/30 14:08:48;;;;;;;10.30;7.50;;;;;;;;;;109306;1252;59517;-81
2023/09/30 14:11:14;;;;;;;9.80;6.40;;;;;;;;;;109338;1253;59070;-81